sensor_id;sensor_type;location;lat;lon;timestamp;P1;durP1;ratioP1;P2;durP2;ratioP2
49626;SDS011;35527;54.616;39.786;2023-03-01T00:01:29;1.80;;;0.85;;
49626;SDS011;35527;54.616;39.786;2023-03-01T00:04:34;3.42;;;0.70;;
49626;SDS011;35527;54.616;39.786;2023-03-01T00:07:37;2.35;;;0.80;;
49626;SDS011;35527;54.616;39.786;2023-03-01T00:10:40;1.70;;;0.68;;
49626;SDS011;35527;54.616;39.786;2023-03-01T00:13:44;1.10;;;0.60;;
49626;SDS011;35527;54.616;39.786;2023-03-01T00:16:49;1.10;;;0.47;;
49626;SDS011;35527;54.616;39.786;2023-03-01T00:19:53;2.28;;;0.95;;
49626;SDS011;35527;54.616;39.786;2023-03-01T00:22:56;2.10;;;0.63;;
49626;SDS011;35527;54.616;39.786;2023-03-01T00:25:58;2.35;;;0.85;;
49626;SDS011;35527;54.616;39.786;2023-03-01T00:29:01;0.75;;;0.45;;
49626;SDS011;35527;54.616;39.786;2023-03-01T00:32:05;1.40;;;0.30;;
49626;SDS011;35527;54.616;39.786;2023-03-01T00:35:08;2.20;;;0.57;;
49626;SDS011;35527;54.616;39.786;2023-03-01T00:38:14;1.05;;;0.50;;
49626;SDS011;35527;54.616;39.786;2023-03-01T00:41:18;2.28;;;0.50;;
49626;SDS011;35527;54.616;39.786;2023-03-01T00:47:29;2.42;;;0.98;;
49626;SDS011;35527;54.616;39.786;2023-03-01T00:51:03;2.80;;;1.05;;
49626;SDS011;35527;54.616;39.786;2023-03-01T00:54:19;1.50;;;0.82;;
49626;SDS011;35527;54.616;39.786;2023-03-01T00:57:23;3.47;;;1.35;;
49626;SDS011;35527;54.616;39.786;2023-03-01T01:00:29;3.03;;;0.98;;
49626;SDS011;35527;54.616;39.786;2023-03-01T01:03:32;4.32;;;1.60;;
49626;SDS011;35527;54.616;39.786;2023-03-01T01:06:36;3.28;;;1.63;;
49626;SDS011;35527;54.616;39.786;2023-03-01T01:09:46;2.80;;;0.88;;
49626;SDS011;35527;54.616;39.786;2023-03-01T01:12:48;4.47;;;1.05;;
49626;SDS011;35527;54.616;39.786;2023-03-01T01:15:52;3.60;;;1.25;;
49626;SDS011;35527;54.616;39.786;2023-03-01T01:18:56;2.50;;;0.70;;
49626;SDS011;35527;54.616;39.786;2023-03-01T01:22:02;6.07;;;1.63;;
49626;SDS011;35527;54.616;39.786;2023-03-01T01:25:06;3.42;;;1.02;;
49626;SDS011;35527;54.616;39.786;2023-03-01T01:28:10;2.08;;;0.80;;
49626;SDS011;35527;54.616;39.786;2023-03-01T01:31:13;2.80;;;0.93;;
49626;SDS011;35527;54.616;39.786;2023-03-01T01:34:21;3.65;;;1.17;;
49626;SDS011;35527;54.616;39.786;2023-03-01T01:37:26;2.33;;;0.70;;
49626;SDS011;35527;54.616;39.786;2023-03-01T01:40:34;2.83;;;0.80;;
49626;SDS011;35527;54.616;39.786;2023-03-01T01:43:39;1.80;;;0.85;;
49626;SDS011;35527;54.616;39.786;2023-03-01T01:50:08;2.45;;;0.63;;
49626;SDS011;35527;54.616;39.786;2023-03-01T01:53:48;3.92;;;0.52;;
49626;SDS011;35527;54.616;39.786;2023-03-01T01:57:22;1.20;;;0.57;;
49626;SDS011;35527;54.616;39.786;2023-03-01T02:00:30;0.65;;;0.40;;
49626;SDS011;35527;54.616;39.786;2023-03-01T02:03:35;1.08;;;0.57;;
49626;SDS011;35527;54.616;39.786;2023-03-01T02:06:51;1.08;;;0.30;;
49626;SDS011;35527;54.616;39.786;2023-03-01T02:10:01;0.40;;;0.20;;
49626;SDS011;35527;54.616;39.786;2023-03-01T02:13:05;5.30;;;0.63;;
49626;SDS011;35527;54.616;39.786;2023-03-01T02:16:10;3.28;;;1.20;;
49626;SDS011;35527;54.616;39.786;2023-03-01T02:19:20;2.72;;;0.57;;
49626;SDS011;35527;54.616;39.786;2023-03-01T02:23:09;0.55;;;0.20;;
49626;SDS011;35527;54.616;39.786;2023-03-01T02:26:40;0.40;;;0.20;;
49626;SDS011;35527;54.616;39.786;2023-03-01T02:29:50;4.07;;;0.65;;
49626;SDS011;35527;54.616;39.786;2023-03-01T02:32:54;1.08;;;0.60;;
49626;SDS011;35527;54.616;39.786;2023-03-01T02:36:14;1.65;;;0.40;;
49626;SDS011;35527;54.616;39.786;2023-03-01T02:39:23;2.28;;;0.55;;
49626;SDS011;35527;54.616;39.786;2023-03-01T02:42:57;0.90;;;0.35;;
49626;SDS011;35527;54.616;39.786;2023-03-01T02:46:06;1.55;;;0.75;;
49626;SDS011;35527;54.616;39.786;2023-03-01T02:49:27;1.27;;;0.40;;
49626;SDS011;35527;54.616;39.786;2023-03-01T02:52:52;1.58;;;0.70;;
49626;SDS011;35527;54.616;39.786;2023-03-01T02:56:07;1.75;;;0.40;;
49626;SDS011;35527;54.616;39.786;2023-03-01T02:59:18;1.70;;;0.70;;
49626;SDS011;35527;54.616;39.786;2023-03-01T03:02:24;1.73;;;0.45;;
49626;SDS011;35527;54.616;39.786;2023-03-01T03:05:50;0.88;;;0.40;;
49626;SDS011;35527;54.616;39.786;2023-03-01T03:08:54;0.57;;;0.47;;
49626;SDS011;35527;54.616;39.786;2023-03-01T03:11:56;0.68;;;0.38;;
49626;SDS011;35527;54.616;39.786;2023-03-01T03:15:29;2.00;;;0.80;;
49626;SDS011;35527;54.616;39.786;2023-03-01T03:18:32;0.38;;;0.17;;
49626;SDS011;35527;54.616;39.786;2023-03-01T03:21:39;0.63;;;0.32;;
49626;SDS011;35527;54.616;39.786;2023-03-01T03:24:43;0.75;;;0.40;;
49626;SDS011;35527;54.616;39.786;2023-03-01T03:27:46;1.10;;;0.45;;
49626;SDS011;35527;54.616;39.786;2023-03-01T03:30:51;1.05;;;0.40;;
49626;SDS011;35527;54.616;39.786;2023-03-01T03:33:55;0.77;;;0.45;;
49626;SDS011;35527;54.616;39.786;2023-03-01T03:36:59;0.70;;;0.22;;
49626;SDS011;35527;54.616;39.786;2023-03-01T03:40:02;2.00;;;0.55;;
49626;SDS011;35527;54.616;39.786;2023-03-01T03:43:10;1.73;;;0.50;;
49626;SDS011;35527;54.616;39.786;2023-03-01T03:46:18;1.85;;;0.68;;
49626;SDS011;35527;54.616;39.786;2023-03-01T03:49:22;5.10;;;0.82;;
49626;SDS011;35527;54.616;39.786;2023-03-01T03:52:26;2.33;;;0.75;;
49626;SDS011;35527;54.616;39.786;2023-03-01T03:55:31;1.15;;;0.40;;
49626;SDS011;35527;54.616;39.786;2023-03-01T03:58:36;2.05;;;0.90;;
49626;SDS011;35527;54.616;39.786;2023-03-01T04:01:40;0.38;;;0.30;;
49626;SDS011;35527;54.616;39.786;2023-03-01T04:04:43;3.30;;;0.80;;
49626;SDS011;35527;54.616;39.786;2023-03-01T04:07:48;1.90;;;0.88;;
49626;SDS011;35527;54.616;39.786;2023-03-01T04:10:52;3.75;;;1.27;;
49626;SDS011;35527;54.616;39.786;2023-03-01T04:14:00;2.08;;;1.10;;
49626;SDS011;35527;54.616;39.786;2023-03-01T04:17:03;2.67;;;0.80;;
49626;SDS011;35527;54.616;39.786;2023-03-01T04:20:15;5.20;;;1.02;;
49626;SDS011;35527;54.616;39.786;2023-03-01T04:23:21;4.20;;;1.08;;
49626;SDS011;35527;54.616;39.786;2023-03-01T04:26:24;2.53;;;0.80;;
49626;SDS011;35527;54.616;39.786;2023-03-01T04:29:27;3.80;;;1.10;;
49626;SDS011;35527;54.616;39.786;2023-03-01T04:36:04;2.63;;;0.95;;
49626;SDS011;35527;54.616;39.786;2023-03-01T04:39:11;1.90;;;0.80;;
49626;SDS011;35527;54.616;39.786;2023-03-01T04:42:16;3.70;;;0.70;;
49626;SDS011;35527;54.616;39.786;2023-03-01T04:48:26;3.67;;;1.00;;
49626;SDS011;35527;54.616;39.786;2023-03-01T04:51:30;3.38;;;1.13;;
49626;SDS011;35527;54.616;39.786;2023-03-01T04:57:39;4.22;;;1.52;;
49626;SDS011;35527;54.616;39.786;2023-03-01T05:00:43;1.95;;;0.80;;
49626;SDS011;35527;54.616;39.786;2023-03-01T05:03:48;1.40;;;0.70;;
49626;SDS011;35527;54.616;39.786;2023-03-01T05:06:53;3.45;;;0.90;;
49626;SDS011;35527;54.616;39.786;2023-03-01T05:09:56;5.20;;;1.30;;
49626;SDS011;35527;54.616;39.786;2023-03-01T05:12:58;4.35;;;1.60;;
49626;SDS011;35527;54.616;39.786;2023-03-01T05:16:05;2.88;;;1.13;;
49626;SDS011;35527;54.616;39.786;2023-03-01T05:19:16;3.00;;;1.10;;
49626;SDS011;35527;54.616;39.786;2023-03-01T05:22:19;3.50;;;1.40;;
49626;SDS011;35527;54.616;39.786;2023-03-01T05:25:22;2.40;;;0.98;;
49626;SDS011;35527;54.616;39.786;2023-03-01T05:28:26;3.83;;;1.00;;
49626;SDS011;35527;54.616;39.786;2023-03-01T05:31:34;3.35;;;0.90;;
49626;SDS011;35527;54.616;39.786;2023-03-01T05:34:37;4.40;;;1.63;;
49626;SDS011;35527;54.616;39.786;2023-03-01T05:37:45;2.92;;;1.35;;
49626;SDS011;35527;54.616;39.786;2023-03-01T05:40:50;1.52;;;0.77;;
49626;SDS011;35527;54.616;39.786;2023-03-01T05:43:56;3.53;;;1.20;;
49626;SDS011;35527;54.616;39.786;2023-03-01T05:46:59;4.57;;;1.23;;
49626;SDS011;35527;54.616;39.786;2023-03-01T05:50:03;1.60;;;0.82;;
49626;SDS011;35527;54.616;39.786;2023-03-01T05:53:07;3.97;;;1.85;;
49626;SDS011;35527;54.616;39.786;2023-03-01T05:56:14;3.75;;;1.67;;
49626;SDS011;35527;54.616;39.786;2023-03-01T05:59:17;3.60;;;1.50;;
49626;SDS011;35527;54.616;39.786;2023-03-01T06:02:21;5.10;;;1.13;;
49626;SDS011;35527;54.616;39.786;2023-03-01T06:05:31;2.30;;;1.00;;
49626;SDS011;35527;54.616;39.786;2023-03-01T06:08:37;4.88;;;1.48;;
49626;SDS011;35527;54.616;39.786;2023-03-01T06:11:40;3.95;;;1.50;;
49626;SDS011;35527;54.616;39.786;2023-03-01T06:14:44;4.07;;;1.33;;
49626;SDS011;35527;54.616;39.786;2023-03-01T06:17:50;3.83;;;1.60;;
49626;SDS011;35527;54.616;39.786;2023-03-01T06:20:55;4.68;;;1.40;;
49626;SDS011;35527;54.616;39.786;2023-03-01T06:23:58;3.95;;;1.52;;
49626;SDS011;35527;54.616;39.786;2023-03-01T06:27:02;4.30;;;1.60;;
49626;SDS011;35527;54.616;39.786;2023-03-01T06:30:05;4.45;;;1.60;;
49626;SDS011;35527;54.616;39.786;2023-03-01T06:33:12;3.25;;;1.17;;
49626;SDS011;35527;54.616;39.786;2023-03-01T06:36:16;1.33;;;0.77;;
49626;SDS011;35527;54.616;39.786;2023-03-01T06:39:20;5.03;;;1.70;;
49626;SDS011;35527;54.616;39.786;2023-03-01T06:42:23;3.45;;;1.40;;
49626;SDS011;35527;54.616;39.786;2023-03-01T06:45:26;4.43;;;1.55;;
49626;SDS011;35527;54.616;39.786;2023-03-01T06:48:28;3.90;;;1.50;;
49626;SDS011;35527;54.616;39.786;2023-03-01T06:51:35;3.15;;;1.40;;
49626;SDS011;35527;54.616;39.786;2023-03-01T06:54:40;4.45;;;1.60;;
49626;SDS011;35527;54.616;39.786;2023-03-01T06:57:43;3.65;;;1.48;;
49626;SDS011;35527;54.616;39.786;2023-03-01T07:00:49;4.35;;;1.58;;
49626;SDS011;35527;54.616;39.786;2023-03-01T07:03:53;3.47;;;1.40;;
49626;SDS011;35527;54.616;39.786;2023-03-01T07:06:57;3.50;;;1.40;;
49626;SDS011;35527;54.616;39.786;2023-03-01T07:10:02;3.83;;;1.58;;
49626;SDS011;35527;54.616;39.786;2023-03-01T07:13:05;5.38;;;1.70;;
49626;SDS011;35527;54.616;39.786;2023-03-01T07:19:13;3.92;;;1.63;;
49626;SDS011;35527;54.616;39.786;2023-03-01T07:22:17;5.82;;;1.90;;
49626;SDS011;35527;54.616;39.786;2023-03-01T07:25:20;4.88;;;1.80;;
49626;SDS011;35527;54.616;39.786;2023-03-01T07:28:23;4.38;;;1.67;;
49626;SDS011;35527;54.616;39.786;2023-03-01T07:31:28;5.28;;;2.05;;
49626;SDS011;35527;54.616;39.786;2023-03-01T07:34:33;2.97;;;1.23;;
49626;SDS011;35527;54.616;39.786;2023-03-01T07:37:36;6.25;;;2.00;;
49626;SDS011;35527;54.616;39.786;2023-03-01T07:40:39;5.65;;;2.10;;
49626;SDS011;35527;54.616;39.786;2023-03-01T07:43:42;3.90;;;1.60;;
49626;SDS011;35527;54.616;39.786;2023-03-01T07:46:54;3.45;;;1.30;;
49626;SDS011;35527;54.616;39.786;2023-03-01T07:49:58;3.25;;;1.42;;
49626;SDS011;35527;54.616;39.786;2023-03-01T07:53:01;5.75;;;1.67;;
49626;SDS011;35527;54.616;39.786;2023-03-01T07:59:14;4.78;;;1.50;;
49626;SDS011;35527;54.616;39.786;2023-03-01T08:02:17;3.53;;;1.48;;
49626;SDS011;35527;54.616;39.786;2023-03-01T08:05:19;4.28;;;1.65;;
49626;SDS011;35527;54.616;39.786;2023-03-01T08:08:52;3.95;;;1.50;;
49626;SDS011;35527;54.616;39.786;2023-03-01T08:11:57;5.28;;;1.80;;
49626;SDS011;35527;54.616;39.786;2023-03-01T08:15:03;5.00;;;1.60;;
49626;SDS011;35527;54.616;39.786;2023-03-01T08:18:09;4.65;;;1.45;;
49626;SDS011;35527;54.616;39.786;2023-03-01T08:21:13;4.40;;;1.80;;
49626;SDS011;35527;54.616;39.786;2023-03-01T08:24:19;4.80;;;1.65;;
49626;SDS011;35527;54.616;39.786;2023-03-01T08:27:21;3.92;;;1.67;;
49626;SDS011;35527;54.616;39.786;2023-03-01T08:30:25;4.32;;;1.60;;
49626;SDS011;35527;54.616;39.786;2023-03-01T08:33:34;3.80;;;1.40;;
49626;SDS011;35527;54.616;39.786;2023-03-01T08:36:41;5.28;;;1.63;;
49626;SDS011;35527;54.616;39.786;2023-03-01T08:40:12;3.90;;;1.70;;
49626;SDS011;35527;54.616;39.786;2023-03-01T08:43:15;4.63;;;1.60;;
49626;SDS011;35527;54.616;39.786;2023-03-01T08:46:20;6.20;;;1.73;;
49626;SDS011;35527;54.616;39.786;2023-03-01T08:49:23;5.50;;;1.77;;
49626;SDS011;35527;54.616;39.786;2023-03-01T08:52:29;4.03;;;1.40;;
49626;SDS011;35527;54.616;39.786;2023-03-01T08:55:38;5.60;;;1.95;;
49626;SDS011;35527;54.616;39.786;2023-03-01T08:58:45;3.78;;;1.70;;
49626;SDS011;35527;54.616;39.786;2023-03-01T09:01:51;3.70;;;1.50;;
49626;SDS011;35527;54.616;39.786;2023-03-01T09:04:54;5.85;;;1.73;;
49626;SDS011;35527;54.616;39.786;2023-03-01T09:07:57;5.40;;;1.55;;
49626;SDS011;35527;54.616;39.786;2023-03-01T09:11:02;4.53;;;1.70;;
49626;SDS011;35527;54.616;39.786;2023-03-01T09:14:06;4.85;;;1.58;;
49626;SDS011;35527;54.616;39.786;2023-03-01T09:17:09;5.75;;;1.60;;
49626;SDS011;35527;54.616;39.786;2023-03-01T09:20:13;5.00;;;1.65;;
49626;SDS011;35527;54.616;39.786;2023-03-01T09:23:43;4.50;;;1.98;;
49626;SDS011;35527;54.616;39.786;2023-03-01T09:26:49;5.38;;;1.90;;
49626;SDS011;35527;54.616;39.786;2023-03-01T09:29:52;4.47;;;1.70;;
49626;SDS011;35527;54.616;39.786;2023-03-01T09:33:00;4.43;;;1.60;;
49626;SDS011;35527;54.616;39.786;2023-03-01T09:36:06;3.80;;;1.60;;
49626;SDS011;35527;54.616;39.786;2023-03-01T09:39:16;5.00;;;1.60;;
49626;SDS011;35527;54.616;39.786;2023-03-01T09:42:20;4.07;;;1.50;;
49626;SDS011;35527;54.616;39.786;2023-03-01T09:45:28;5.40;;;1.75;;
49626;SDS011;35527;54.616;39.786;2023-03-01T09:48:52;4.40;;;1.40;;
49626;SDS011;35527;54.616;39.786;2023-03-01T09:59:28;2.83;;;1.05;;
49626;SDS011;35527;54.616;39.786;2023-03-01T10:06:05;5.45;;;1.60;;
49626;SDS011;35527;54.616;39.786;2023-03-01T10:09:30;4.25;;;1.75;;
49626;SDS011;35527;54.616;39.786;2023-03-01T10:12:40;7.47;;;1.90;;
49626;SDS011;35527;54.616;39.786;2023-03-01T10:15:49;2.22;;;1.00;;
49626;SDS011;35527;54.616;39.786;2023-03-01T10:18:59;3.15;;;1.25;;
49626;SDS011;35527;54.616;39.786;2023-03-01T10:22:16;2.30;;;1.00;;
49626;SDS011;35527;54.616;39.786;2023-03-01T10:32:20;5.25;;;1.92;;
49626;SDS011;35527;54.616;39.786;2023-03-01T10:35:28;1.85;;;1.10;;
49626;SDS011;35527;54.616;39.786;2023-03-01T10:38:46;6.07;;;1.73;;
49626;SDS011;35527;54.616;39.786;2023-03-01T10:42:02;1.98;;;1.38;;
49626;SDS011;35527;54.616;39.786;2023-03-01T10:48:36;3.33;;;1.42;;
49626;SDS011;35527;54.616;39.786;2023-03-01T10:51:41;4.20;;;0.82;;
49626;SDS011;35527;54.616;39.786;2023-03-01T10:54:53;4.80;;;1.23;;
49626;SDS011;35527;54.616;39.786;2023-03-01T11:04:20;3.33;;;1.15;;
49626;SDS011;35527;54.616;39.786;2023-03-01T11:07:25;6.25;;;2.10;;
49626;SDS011;35527;54.616;39.786;2023-03-01T11:10:30;3.55;;;1.40;;
49626;SDS011;35527;54.616;39.786;2023-03-01T11:13:35;5.00;;;2.00;;
49626;SDS011;35527;54.616;39.786;2023-03-01T11:16:46;3.80;;;1.42;;
49626;SDS011;35527;54.616;39.786;2023-03-01T11:20:27;5.40;;;1.98;;
49626;SDS011;35527;54.616;39.786;2023-03-01T11:23:38;1.45;;;1.05;;
49626;SDS011;35527;54.616;39.786;2023-03-01T11:26:50;3.85;;;1.00;;
49626;SDS011;35527;54.616;39.786;2023-03-01T11:36:54;6.13;;;2.00;;
49626;SDS011;35527;54.616;39.786;2023-03-01T11:40:05;3.22;;;1.30;;
49626;SDS011;35527;54.616;39.786;2023-03-01T11:43:20;5.90;;;2.17;;
49626;SDS011;35527;54.616;39.786;2023-03-01T12:03:39;2.83;;;1.15;;
49626;SDS011;35527;54.616;39.786;2023-03-01T12:11:12;4.43;;;1.95;;
49626;SDS011;35527;54.616;39.786;2023-03-01T12:14:49;2.40;;;1.00;;
49626;SDS011;35527;54.616;39.786;2023-03-01T12:25:20;2.25;;;1.20;;
49626;SDS011;35527;54.616;39.786;2023-03-01T12:28:55;3.20;;;1.10;;
49626;SDS011;35527;54.616;39.786;2023-03-01T12:39:31;3.03;;;1.20;;
49626;SDS011;35527;54.616;39.786;2023-03-01T12:49:31;3.83;;;1.17;;
49626;SDS011;35527;54.616;39.786;2023-03-01T12:52:55;4.03;;;1.15;;
49626;SDS011;35527;54.616;39.786;2023-03-01T12:56:10;6.00;;;2.35;;
49626;SDS011;35527;54.616;39.786;2023-03-01T13:02:30;1.80;;;0.82;;
49626;SDS011;35527;54.616;39.786;2023-03-01T13:06:19;4.97;;;0.95;;
49626;SDS011;35527;54.616;39.786;2023-03-01T13:09:56;3.85;;;1.55;;
49626;SDS011;35527;54.616;39.786;2023-03-01T13:13:40;6.07;;;2.28;;
49626;SDS011;35527;54.616;39.786;2023-03-01T13:16:39;6.30;;;2.28;;
49626;SDS011;35527;54.616;39.786;2023-03-01T13:19:55;6.63;;;2.00;;
49626;SDS011;35527;54.616;39.786;2023-03-01T13:23:13;2.25;;;0.90;;
49626;SDS011;35527;54.616;39.786;2023-03-01T13:26:25;6.80;;;1.13;;
49626;SDS011;35527;54.616;39.786;2023-03-01T13:33:03;3.60;;;1.02;;
49626;SDS011;35527;54.616;39.786;2023-03-01T13:39:39;6.30;;;1.33;;
49626;SDS011;35527;54.616;39.786;2023-03-01T13:46:31;3.75;;;1.58;;
49626;SDS011;35527;54.616;39.786;2023-03-01T13:49:52;3.85;;;1.08;;
49626;SDS011;35527;54.616;39.786;2023-03-01T13:53:09;6.55;;;2.55;;
49626;SDS011;35527;54.616;39.786;2023-03-01T13:56:21;3.30;;;1.10;;
49626;SDS011;35527;54.616;39.786;2023-03-01T13:59:28;4.50;;;1.48;;
49626;SDS011;35527;54.616;39.786;2023-03-01T14:05:39;1.73;;;0.90;;
49626;SDS011;35527;54.616;39.786;2023-03-01T14:09:20;3.33;;;1.20;;
49626;SDS011;35527;54.616;39.786;2023-03-01T14:12:43;2.63;;;0.85;;
49626;SDS011;35527;54.616;39.786;2023-03-01T14:19:32;3.25;;;1.58;;
49626;SDS011;35527;54.616;39.786;2023-03-01T14:22:36;3.72;;;1.02;;
49626;SDS011;35527;54.616;39.786;2023-03-01T14:25:49;6.40;;;2.38;;
49626;SDS011;35527;54.616;39.786;2023-03-01T14:29:00;2.20;;;1.00;;
49626;SDS011;35527;54.616;39.786;2023-03-01T14:35:33;2.58;;;1.10;;
49626;SDS011;35527;54.616;39.786;2023-03-01T14:38:43;3.58;;;1.25;;
49626;SDS011;35527;54.616;39.786;2023-03-01T14:41:47;4.50;;;1.23;;
49626;SDS011;35527;54.616;39.786;2023-03-01T14:44:57;2.75;;;0.93;;
49626;SDS011;35527;54.616;39.786;2023-03-01T14:48:04;1.65;;;0.70;;
49626;SDS011;35527;54.616;39.786;2023-03-01T14:51:11;2.85;;;0.98;;
49626;SDS011;35527;54.616;39.786;2023-03-01T14:54:25;4.75;;;1.58;;
49626;SDS011;35527;54.616;39.786;2023-03-01T14:57:32;5.75;;;1.23;;
49626;SDS011;35527;54.616;39.786;2023-03-01T15:00:35;3.88;;;1.42;;
49626;SDS011;35527;54.616;39.786;2023-03-01T15:03:49;3.40;;;1.13;;
49626;SDS011;35527;54.616;39.786;2023-03-01T15:06:55;2.40;;;1.13;;
49626;SDS011;35527;54.616;39.786;2023-03-01T15:10:14;8.38;;;2.15;;
49626;SDS011;35527;54.616;39.786;2023-03-01T15:13:22;3.65;;;1.17;;
49626;SDS011;35527;54.616;39.786;2023-03-01T15:16:32;2.90;;;1.23;;
49626;SDS011;35527;54.616;39.786;2023-03-01T15:19:37;2.10;;;1.03;;
49626;SDS011;35527;54.616;39.786;2023-03-01T15:22:42;2.90;;;0.93;;
49626;SDS011;35527;54.616;39.786;2023-03-01T15:25:51;2.75;;;1.33;;
49626;SDS011;35527;54.616;39.786;2023-03-01T15:29:02;3.67;;;0.75;;
49626;SDS011;35527;54.616;39.786;2023-03-01T15:35:42;1.85;;;0.85;;
49626;SDS011;35527;54.616;39.786;2023-03-01T15:41:57;5.38;;;1.90;;
49626;SDS011;35527;54.616;39.786;2023-03-01T15:45:09;2.38;;;1.17;;
49626;SDS011;35527;54.616;39.786;2023-03-01T15:48:23;2.35;;;0.70;;
49626;SDS011;35527;54.616;39.786;2023-03-01T15:51:37;2.42;;;0.98;;
49626;SDS011;35527;54.616;39.786;2023-03-01T15:54:40;1.70;;;0.73;;
49626;SDS011;35527;54.616;39.786;2023-03-01T15:57:44;1.33;;;0.73;;
49626;SDS011;35527;54.616;39.786;2023-03-01T16:00:48;2.50;;;0.85;;
49626;SDS011;35527;54.616;39.786;2023-03-01T16:04:03;1.75;;;1.00;;
49626;SDS011;35527;54.616;39.786;2023-03-01T16:07:08;0.70;;;0.50;;
49626;SDS011;35527;54.616;39.786;2023-03-01T16:10:13;2.97;;;0.60;;
49626;SDS011;35527;54.616;39.786;2023-03-01T16:13:17;2.42;;;1.08;;
49626;SDS011;35527;54.616;39.786;2023-03-01T16:16:24;2.83;;;1.55;;
49626;SDS011;35527;54.616;39.786;2023-03-01T16:19:31;2.20;;;0.70;;
49626;SDS011;35527;54.616;39.786;2023-03-01T16:22:35;2.75;;;1.00;;
49626;SDS011;35527;54.616;39.786;2023-03-01T16:25:38;1.67;;;0.70;;
49626;SDS011;35527;54.616;39.786;2023-03-01T16:28:45;1.77;;;0.70;;
49626;SDS011;35527;54.616;39.786;2023-03-01T16:31:48;2.20;;;0.75;;
49626;SDS011;35527;54.616;39.786;2023-03-01T16:34:53;3.17;;;0.90;;
49626;SDS011;35527;54.616;39.786;2023-03-01T16:37:57;3.35;;;0.70;;
49626;SDS011;35527;54.616;39.786;2023-03-01T16:41:02;1.58;;;0.80;;
49626;SDS011;35527;54.616;39.786;2023-03-01T16:44:06;1.67;;;0.50;;
49626;SDS011;35527;54.616;39.786;2023-03-01T16:47:10;1.35;;;0.52;;
49626;SDS011;35527;54.616;39.786;2023-03-01T16:50:15;2.60;;;0.70;;
49626;SDS011;35527;54.616;39.786;2023-03-01T16:53:18;3.13;;;0.63;;
49626;SDS011;35527;54.616;39.786;2023-03-01T16:56:24;1.30;;;0.70;;
49626;SDS011;35527;54.616;39.786;2023-03-01T16:59:27;1.85;;;0.45;;
49626;SDS011;35527;54.616;39.786;2023-03-01T17:02:31;2.25;;;0.63;;
49626;SDS011;35527;54.616;39.786;2023-03-01T17:05:34;0.70;;;0.35;;
49626;SDS011;35527;54.616;39.786;2023-03-01T17:08:40;3.53;;;0.80;;
49626;SDS011;35527;54.616;39.786;2023-03-01T17:11:44;2.05;;;0.80;;
49626;SDS011;35527;54.616;39.786;2023-03-01T17:14:47;0.38;;;0.32;;
49626;SDS011;35527;54.616;39.786;2023-03-01T17:17:52;4.32;;;0.95;;
49626;SDS011;35527;54.616;39.786;2023-03-01T17:20:56;2.20;;;0.70;;
49626;SDS011;35527;54.616;39.786;2023-03-01T17:24:01;2.38;;;0.65;;
49626;SDS011;35527;54.616;39.786;2023-03-01T17:27:05;1.55;;;0.50;;
49626;SDS011;35527;54.616;39.786;2023-03-01T17:30:11;1.70;;;0.70;;
49626;SDS011;35527;54.616;39.786;2023-03-01T17:33:16;0.40;;;0.40;;
49626;SDS011;35527;54.616;39.786;2023-03-01T17:36:20;3.78;;;0.70;;
49626;SDS011;35527;54.616;39.786;2023-03-01T17:39:23;3.38;;;0.98;;
49626;SDS011;35527;54.616;39.786;2023-03-01T17:42:31;2.15;;;0.80;;
49626;SDS011;35527;54.616;39.786;2023-03-01T17:45:37;1.35;;;0.57;;
49626;SDS011;35527;54.616;39.786;2023-03-01T17:48:42;1.58;;;0.70;;
49626;SDS011;35527;54.616;39.786;2023-03-01T17:51:47;2.42;;;0.80;;
49626;SDS011;35527;54.616;39.786;2023-03-01T17:54:50;1.95;;;0.80;;
49626;SDS011;35527;54.616;39.786;2023-03-01T17:57:54;3.05;;;0.65;;
49626;SDS011;35527;54.616;39.786;2023-03-01T18:04:10;2.53;;;0.80;;
49626;SDS011;35527;54.616;39.786;2023-03-01T18:07:16;2.38;;;0.80;;
49626;SDS011;35527;54.616;39.786;2023-03-01T18:10:20;3.00;;;0.90;;
49626;SDS011;35527;54.616;39.786;2023-03-01T18:13:24;1.50;;;0.65;;
49626;SDS011;35527;54.616;39.786;2023-03-01T18:16:28;1.67;;;0.68;;
49626;SDS011;35527;54.616;39.786;2023-03-01T18:19:35;1.55;;;0.70;;
49626;SDS011;35527;54.616;39.786;2023-03-01T18:22:49;1.00;;;0.73;;
49626;SDS011;35527;54.616;39.786;2023-03-01T18:26:39;1.63;;;0.68;;
49626;SDS011;35527;54.616;39.786;2023-03-01T18:29:58;4.80;;;1.10;;
49626;SDS011;35527;54.616;39.786;2023-03-01T18:33:03;1.77;;;0.80;;
49626;SDS011;35527;54.616;39.786;2023-03-01T18:36:18;1.20;;;0.65;;
49626;SDS011;35527;54.616;39.786;2023-03-01T18:39:53;2.97;;;0.77;;
49626;SDS011;35527;54.616;39.786;2023-03-01T18:43:13;0.98;;;0.73;;
49626;SDS011;35527;54.616;39.786;2023-03-01T18:46:21;2.97;;;0.77;;
49626;SDS011;35527;54.616;39.786;2023-03-01T18:49:26;1.00;;;0.68;;
49626;SDS011;35527;54.616;39.786;2023-03-01T18:52:29;1.05;;;0.50;;
49626;SDS011;35527;54.616;39.786;2023-03-01T18:55:38;2.25;;;0.40;;
49626;SDS011;35527;54.616;39.786;2023-03-01T18:59:10;0.77;;;0.43;;
49626;SDS011;35527;54.616;39.786;2023-03-01T19:02:14;0.85;;;0.38;;
49626;SDS011;35527;54.616;39.786;2023-03-01T19:05:17;0.68;;;0.40;;
49626;SDS011;35527;54.616;39.786;2023-03-01T19:08:20;0.20;;;0.20;;
49626;SDS011;35527;54.616;39.786;2023-03-01T19:11:26;0.55;;;0.50;;
49626;SDS011;35527;54.616;39.786;2023-03-01T19:14:32;1.25;;;0.43;;
49626;SDS011;35527;54.616;39.786;2023-03-01T19:17:35;0.77;;;0.55;;
49626;SDS011;35527;54.616;39.786;2023-03-01T19:20:39;0.40;;;0.30;;
49626;SDS011;35527;54.616;39.786;2023-03-01T19:23:43;0.60;;;0.35;;
49626;SDS011;35527;54.616;39.786;2023-03-01T19:26:47;0.75;;;0.43;;
49626;SDS011;35527;54.616;39.786;2023-03-01T19:29:49;0.75;;;0.20;;
49626;SDS011;35527;54.616;39.786;2023-03-01T19:32:54;5.05;;;0.70;;
49626;SDS011;35527;54.616;39.786;2023-03-01T19:35:57;1.25;;;0.57;;
49626;SDS011;35527;54.616;39.786;2023-03-01T19:39:03;0.77;;;0.40;;
49626;SDS011;35527;54.616;39.786;2023-03-01T19:42:12;1.20;;;0.50;;
49626;SDS011;35527;54.616;39.786;2023-03-01T19:45:15;0.65;;;0.43;;
49626;SDS011;35527;54.616;39.786;2023-03-01T19:48:28;3.42;;;0.70;;
49626;SDS011;35527;54.616;39.786;2023-03-01T19:51:33;3.05;;;0.80;;
49626;SDS011;35527;54.616;39.786;2023-03-01T19:54:42;1.08;;;0.55;;
49626;SDS011;35527;54.616;39.786;2023-03-01T19:57:57;2.03;;;0.93;;
49626;SDS011;35527;54.616;39.786;2023-03-01T20:01:16;1.35;;;0.60;;
49626;SDS011;35527;54.616;39.786;2023-03-01T20:04:34;2.28;;;0.73;;
49626;SDS011;35527;54.616;39.786;2023-03-01T20:07:38;2.10;;;1.23;;
49626;SDS011;35527;54.616;39.786;2023-03-01T20:11:07;0.80;;;0.45;;
49626;SDS011;35527;54.616;39.786;2023-03-01T20:14:16;0.88;;;0.47;;
49626;SDS011;35527;54.616;39.786;2023-03-01T20:17:23;1.00;;;0.80;;
49626;SDS011;35527;54.616;39.786;2023-03-01T20:20:26;1.55;;;0.52;;
49626;SDS011;35527;54.616;39.786;2023-03-01T20:23:30;1.55;;;0.38;;
49626;SDS011;35527;54.616;39.786;2023-03-01T20:26:35;0.98;;;0.43;;
49626;SDS011;35527;54.616;39.786;2023-03-01T20:29:42;0.43;;;0.20;;
49626;SDS011;35527;54.616;39.786;2023-03-01T20:32:48;2.85;;;1.20;;
49626;SDS011;35527;54.616;39.786;2023-03-01T20:35:52;0.17;;;0.17;;
49626;SDS011;35527;54.616;39.786;2023-03-01T20:39:21;1.75;;;0.50;;
49626;SDS011;35527;54.616;39.786;2023-03-01T20:42:27;0.90;;;0.43;;
49626;SDS011;35527;54.616;39.786;2023-03-01T20:45:37;5.20;;;0.98;;
49626;SDS011;35527;54.616;39.786;2023-03-01T20:48:42;0.43;;;0.20;;
49626;SDS011;35527;54.616;39.786;2023-03-01T20:51:47;0.30;;;0.20;;